createdAt,value
2019-04-16T00:01:39.532Z,9.08
2019-04-16T00:04:17.950Z,9.02
2019-04-16T00:06:52.915Z,9.09
2019-04-16T00:09:19.005Z,8.65
2019-04-16T00:11:45.188Z,8.97
2019-04-16T00:14:11.251Z,9.02
2019-04-16T00:16:35.648Z,8.85
2019-04-16T00:19:05.646Z,8.83
2019-04-16T00:21:38.419Z,8.75
2019-04-16T00:24:04.822Z,8.98
2019-04-16T00:26:29.278Z,8.88
2019-04-16T00:28:53.707Z,8.80
2019-04-16T00:31:18.289Z,8.76
2019-04-16T00:33:43.549Z,8.79
2019-04-16T00:36:08.069Z,8.76
2019-04-16T00:38:40.664Z,8.62
2019-04-16T00:41:01.366Z,8.63
2019-04-16T00:43:24.771Z,8.61
2019-04-16T00:45:49.278Z,8.53
2019-04-16T00:48:14.222Z,8.70
2019-04-16T00:50:38.716Z,8.43
2019-04-16T00:53:07.615Z,8.55
2019-04-16T00:55:29.321Z,8.50
2019-04-16T00:57:53.731Z,8.32
2019-04-16T01:00:18.240Z,8.48
2019-04-16T01:02:42.630Z,8.53
2019-04-16T01:05:07.314Z,8.60
2019-04-16T01:07:31.732Z,8.39
2019-04-16T01:09:56.618Z,8.40
2019-04-16T01:12:21.118Z,8.37
2019-04-16T01:14:45.545Z,8.20
2019-04-16T01:17:09.948Z,8.23
2019-04-16T01:19:34.464Z,8.34
2019-04-16T01:21:58.874Z,8.22
2019-04-16T01:24:23.352Z,8.15
2019-04-16T01:26:47.832Z,8.11
2019-04-16T01:29:14.107Z,8.06
2019-04-16T01:31:56.444Z,8.09
2019-04-16T01:34:31.692Z,7.95
2019-04-16T01:37:14.148Z,8.06
2019-04-16T01:39:40.202Z,7.95
2019-04-16T01:42:04.773Z,7.66
2019-04-16T01:44:29.710Z,7.84
2019-04-16T01:46:54.360Z,7.84
2019-04-16T01:49:18.771Z,7.89
2019-04-16T01:51:44.686Z,7.90
2019-04-16T01:54:09.374Z,7.92
2019-04-16T01:56:33.824Z,7.68
2019-04-16T01:58:58.235Z,7.71
2019-04-16T02:01:22.741Z,7.69
2019-04-16T02:03:48.919Z,7.77
2019-04-16T02:06:13.419Z,7.64
2019-04-16T02:08:37.835Z,7.50
2019-04-16T02:11:02.330Z,7.69
2019-04-16T02:13:26.871Z,7.64
2019-04-16T02:15:53.522Z,7.43
2019-04-16T02:18:17.423Z,7.34
2019-04-16T02:20:41.876Z,7.44
2019-04-16T02:23:06.362Z,7.40
2019-04-16T02:25:30.767Z,7.38
2019-04-16T02:27:57.080Z,7.18
2019-04-16T02:30:21.385Z,7.32
2019-04-16T02:32:45.974Z,7.36
2019-04-16T02:35:10.818Z,7.33
2019-04-16T02:37:38.442Z,7.19
2019-04-16T02:40:02.926Z,7.05
2019-04-16T02:42:30.922Z,7.23
2019-04-16T02:44:53.565Z,7.25
2019-04-16T02:47:18.133Z,7.23
2019-04-16T02:49:42.627Z,7.22
2019-04-16T02:52:25.940Z,7.24
2019-04-16T02:54:57.865Z,7.26
2019-04-16T02:57:35.967Z,7.08
2019-04-16T03:00:03.736Z,7.16
2019-04-16T03:02:45.029Z,7.06
2019-04-16T03:05:29.709Z,7.05
2019-04-16T03:07:55.433Z,7.09
2019-04-16T03:10:21.569Z,7.01
2019-04-16T03:12:45.993Z,7.12
2019-04-16T03:15:11.532Z,7.03
2019-04-16T03:17:42.954Z,6.71
2019-04-16T03:20:11.662Z,6.92
2019-04-16T03:22:36.370Z,6.93
2019-04-16T03:25:00.851Z,6.93
2019-04-16T03:27:25.360Z,6.80
2019-04-16T03:29:51.256Z,6.85
2019-04-16T03:32:16.742Z,6.83
2019-04-16T03:34:42.178Z,6.78
2019-04-16T03:37:06.766Z,6.70
2019-04-16T03:39:31.201Z,6.76
2019-04-16T03:41:56.198Z,6.67
2019-04-16T03:44:21.383Z,6.69
2019-04-16T03:46:46.948Z,6.55
2019-04-16T03:49:12.013Z,6.62
2019-04-16T03:51:36.597Z,6.48
2019-04-16T03:54:01.179Z,6.32
2019-04-16T03:56:27.605Z,6.29
2019-04-16T03:58:51.839Z,6.36
2019-04-16T04:01:16.384Z,6.37
2019-04-16T04:03:40.803Z,6.56
2019-04-16T04:06:06.923Z,6.39
2019-04-16T04:08:31.387Z,6.39
2019-04-16T04:10:55.931Z,6.20
2019-04-16T04:13:20.445Z,6.39
2019-04-16T04:15:44.848Z,6.20
2019-04-16T04:18:11.647Z,6.37
2019-04-16T04:20:35.471Z,6.38
2019-04-16T04:22:59.895Z,6.29
2019-04-16T04:25:24.338Z,6.19
2019-04-16T04:27:48.735Z,6.29
2019-04-16T04:30:13.335Z,6.11
2019-04-16T04:32:37.825Z,6.24
2019-04-16T04:35:02.310Z,6.11
2019-04-16T04:37:30.931Z,6.17
2019-04-16T04:39:52.829Z,6.22
2019-04-16T04:42:19.158Z,6.26
2019-04-16T04:44:46.778Z,6.19
2019-04-16T04:47:09.542Z,6.21
2019-04-16T04:49:34.054Z,6.33
2019-04-16T04:51:58.497Z,6.29
2019-04-16T04:54:23.507Z,5.99
2019-04-16T04:56:48.131Z,6.30
2019-04-16T04:59:12.716Z,6.21
2019-04-16T05:01:37.716Z,6.16
2019-04-16T05:04:03.784Z,6.27
2019-04-16T05:06:30.992Z,6.32
2019-04-16T05:08:57.656Z,6.21
2019-04-16T05:11:23.480Z,5.93
2019-04-16T05:13:49.722Z,6.09
2019-04-16T05:16:15.367Z,6.26
2019-04-16T05:18:41.953Z,6.41
2019-04-16T05:21:06.811Z,6.01
2019-04-16T05:23:31.353Z,6.39
2019-04-16T05:25:55.852Z,6.31
2019-04-16T05:28:20.258Z,6.34
2019-04-16T05:30:44.696Z,6.37
2019-04-16T05:33:09.100Z,6.38
2019-04-16T05:35:33.666Z,6.28
2019-04-16T05:37:58.133Z,6.34
2019-04-16T05:40:22.714Z,6.24
2019-04-16T05:42:47.211Z,6.43
2019-04-16T05:45:11.764Z,6.40
2019-04-16T05:47:36.226Z,6.40
2019-04-16T05:50:00.619Z,6.65
2019-04-16T05:52:25.168Z,6.63
2019-04-16T05:54:54.333Z,6.71
2019-04-16T05:57:29.269Z,6.70
2019-04-16T05:59:53.727Z,6.67
2019-04-16T06:02:20.052Z,6.88
2019-04-16T06:04:44.552Z,6.59
2019-04-16T06:07:08.989Z,6.52
2019-04-16T06:09:33.457Z,6.59
2019-04-16T06:11:57.876Z,6.96
2019-04-16T06:14:26.747Z,6.86
2019-04-16T06:17:05.071Z,6.39
2019-04-16T06:19:43.814Z,6.84
2019-04-16T06:22:29.581Z,7.07
2019-04-16T06:25:11.114Z,7.19
2019-04-16T06:27:43.202Z,7.17
2019-04-16T06:30:21.444Z,6.98
2019-04-16T06:32:56.687Z,6.94
2019-04-16T06:35:43.334Z,7.37
2019-04-16T06:38:06.761Z,7.21
2019-04-16T06:40:48.735Z,7.26
2019-04-16T06:43:26.507Z,7.44
2019-04-16T06:46:05.508Z,7.50
2019-04-16T06:48:35.337Z,7.28
2019-04-16T06:51:11.720Z,7.37
2019-04-16T06:53:50.069Z,7.42
2019-04-16T06:56:16.442Z,7.80
2019-04-16T06:58:51.171Z,7.50
2019-04-16T07:01:25.033Z,7.61
2019-04-16T07:03:58.544Z,7.73
2019-04-16T07:06:37.484Z,7.86
2019-04-16T07:09:12.537Z,8.21
2019-04-16T07:11:38.675Z,8.22
2019-04-16T07:14:03.214Z,8.38
2019-04-16T07:16:28.908Z,8.35
2019-04-16T07:18:54.352Z,8.32
2019-04-16T07:21:18.901Z,8.64
2019-04-16T07:23:45.918Z,8.44
2019-04-16T07:26:13.498Z,8.70
2019-04-16T07:28:58.556Z,8.78
2019-04-16T07:31:34.513Z,8.93
2019-04-16T07:34:13.967Z,8.62
2019-04-16T07:36:40.091Z,8.88
2019-04-16T07:39:13.531Z,8.88
2019-04-16T07:41:49.896Z,8.95
2019-04-16T07:44:15.957Z,9.16
2019-04-16T07:46:47.122Z,9.13
2019-04-16T07:49:12.462Z,9.33
2019-04-16T07:51:56.859Z,9.37
2019-04-16T07:54:28.876Z,9.45
2019-04-16T07:56:54.170Z,9.52
2019-04-16T07:59:18.597Z,9.61
2019-04-16T08:01:44.106Z,9.71
2019-04-16T08:04:09.487Z,9.87
2019-04-16T08:06:33.921Z,9.93
2019-04-16T08:08:58.580Z,9.70
2019-04-16T08:11:23.294Z,10.14
2019-04-16T08:13:47.731Z,10.06
2019-04-16T08:16:13.675Z,10.23
2019-04-16T08:18:39.751Z,10.29
2019-04-16T08:21:10.308Z,10.34
2019-04-16T08:23:34.954Z,10.36
2019-04-16T08:26:04.001Z,10.61
2019-04-16T08:28:27.221Z,10.54
2019-04-16T08:30:51.797Z,10.75
2019-04-16T08:33:16.247Z,10.85
2019-04-16T08:35:40.645Z,11.01
2019-04-16T08:38:05.047Z,11.21
2019-04-16T08:40:29.477Z,11.23
2019-04-16T08:42:56.991Z,11.41
2019-04-16T08:45:20.713Z,11.29
2019-04-16T08:47:46.133Z,11.44
2019-04-16T08:50:12.208Z,11.32
2019-04-16T08:52:38.543Z,11.60
2019-04-16T08:55:03.203Z,11.96
2019-04-16T08:57:31.765Z,12.05
2019-04-16T08:59:53.731Z,12.24
2019-04-16T09:02:18.212Z,12.39
2019-04-16T09:04:42.663Z,12.40
2019-04-16T09:07:11.976Z,12.42
2019-04-16T09:09:36.568Z,12.52
2019-04-16T09:12:07.734Z,12.51
2019-04-16T09:14:30.869Z,12.65
2019-04-16T09:16:57.248Z,12.70
2019-04-16T09:19:23.060Z,12.83
2019-04-16T09:21:47.475Z,13.07
2019-04-16T09:24:19.433Z,13.38
2019-04-16T09:26:45.565Z,13.25
2019-04-16T09:29:11.712Z,13.43
2019-04-16T09:31:37.773Z,13.42
2019-04-16T09:34:09.661Z,13.60
2019-04-16T09:36:38.404Z,13.86
2019-04-16T09:39:10.974Z,13.94
2019-04-16T09:41:37.096Z,14.09
2019-04-16T09:44:02.446Z,14.04
2019-04-16T09:46:49.711Z,14.31
2019-04-16T09:48:53.458Z,14.52
2019-04-16T09:51:20.799Z,14.17
2019-04-16T09:53:44.035Z,14.32
2019-04-16T09:56:28.936Z,14.37
2019-04-16T09:58:53.854Z,14.49
2019-04-16T10:01:18.757Z,14.69
2019-04-16T10:03:44.870Z,14.90
2019-04-16T10:06:09.404Z,14.99
2019-04-16T10:08:33.841Z,15.10
2019-04-16T10:11:02.742Z,15.34
2019-04-16T10:13:32.767Z,15.73
2019-04-16T10:15:50.717Z,15.62
2019-04-16T10:18:15.106Z,15.84
2019-04-16T10:20:40.477Z,15.99
2019-04-16T10:23:06.801Z,15.88
2019-04-16T10:25:33.609Z,16.12
2019-04-16T10:28:01.987Z,15.65
2019-04-16T10:30:29.912Z,15.76
2019-04-16T10:32:53.388Z,15.89
2019-04-16T10:35:17.878Z,16.07
2019-04-16T10:37:42.293Z,16.16
2019-04-16T10:40:08.604Z,16.42
2019-04-16T10:42:50.803Z,16.52
2019-04-16T10:45:33.064Z,16.35
2019-04-16T10:48:02.117Z,16.53
2019-04-16T10:50:37.335Z,16.68
2019-04-16T10:53:15.308Z,16.96
2019-04-16T10:55:57.672Z,17.02
2019-04-16T10:58:40.062Z,17.06
2019-04-16T11:01:18.525Z,17.10
2019-04-16T11:03:47.370Z,17.05
2019-04-16T11:06:13.526Z,17.20
2019-04-16T11:08:37.916Z,17.47
2019-04-16T11:11:02.605Z,17.51
2019-04-16T11:13:28.723Z,17.40
2019-04-16T11:15:53.287Z,17.68
2019-04-16T11:18:17.905Z,17.60
2019-04-16T11:20:42.547Z,17.85
2019-04-16T11:23:07.823Z,18.03
2019-04-16T11:25:32.666Z,18.04
2019-04-16T11:27:57.309Z,18.20
2019-04-16T11:30:23.535Z,18.00
2019-04-16T11:32:48.088Z,18.35
2019-04-16T11:35:13.269Z,18.32
2019-04-16T11:37:43.573Z,18.31
2019-04-16T11:40:06.393Z,18.69
2019-04-16T11:42:30.855Z,18.65
2019-04-16T11:44:55.369Z,19.15
2019-04-16T11:47:19.837Z,19.20
2019-04-16T11:49:44.240Z,19.07
2019-04-16T11:52:08.743Z,19.15
2019-04-16T11:54:33.187Z,19.16
2019-04-16T11:56:59.490Z,19.07
2019-04-16T11:59:23.782Z,19.55
2019-04-16T12:02:06.167Z,19.35
2019-04-16T12:04:34.963Z,19.65
2019-04-16T12:07:17.499Z,19.35
2019-04-16T12:09:58.644Z,19.30
2019-04-16T12:12:24.728Z,20.10
2019-04-16T12:14:56.634Z,19.78
2019-04-16T12:17:22.807Z,19.96
2019-04-16T12:20:05.217Z,20.02
2019-04-16T12:22:31.306Z,19.92
2019-04-16T12:24:57.455Z,20.06
2019-04-16T12:27:32.470Z,20.33
2019-04-16T12:30:16.754Z,20.02
2019-04-16T12:32:45.774Z,20.81
2019-04-16T12:35:15.006Z,20.07
2019-04-16T12:37:57.295Z,20.88
2019-04-16T12:40:35.422Z,21.39
2019-04-16T12:43:16.002Z,20.89
2019-04-16T12:45:41.469Z,21.14
2019-04-16T12:48:19.971Z,21.13
2019-04-16T12:51:00.932Z,20.83
2019-04-16T12:53:27.045Z,21.45
2019-04-16T12:56:05.750Z,21.29
2019-04-16T12:58:42.591Z,21.55
2019-04-16T13:01:11.625Z,21.28
2019-04-16T13:03:37.707Z,21.73
2019-04-16T13:06:20.089Z,21.16
2019-04-16T13:08:54.916Z,22.05
2019-04-16T13:11:36.316Z,21.38
2019-04-16T13:14:02.387Z,22.13
2019-04-16T13:16:44.608Z,22.18
2019-04-16T13:19:13.717Z,22.06
2019-04-16T13:21:42.798Z,21.86
2019-04-16T13:24:08.987Z,22.27
2019-04-16T13:26:35.090Z,22.16
2019-04-16T13:29:01.240Z,22.38
2019-04-16T13:31:25.727Z,22.66
2019-04-16T13:33:50.979Z,22.10
2019-04-16T13:36:16.319Z,22.42
2019-04-16T13:38:50.891Z,22.51
2019-04-16T13:41:15.326Z,22.70
2019-04-16T13:43:41.394Z,22.74
2019-04-16T13:46:05.910Z,22.30
2019-04-16T13:48:43.975Z,22.98
2019-04-16T13:51:14.913Z,23.15
2019-04-16T13:53:47.065Z,23.34
2019-04-16T13:56:22.186Z,23.03
2019-04-16T13:58:59.147Z,22.95
2019-04-16T14:01:45.239Z,22.18
2019-04-16T14:04:07.356Z,23.06
2019-04-16T14:06:31.863Z,22.80
2019-04-16T14:08:56.270Z,23.24
2019-04-16T14:11:20.777Z,23.93
2019-04-16T14:13:46.405Z,23.27
2019-04-16T14:16:13.461Z,23.18
2019-04-16T14:18:38.229Z,22.86
2019-04-16T14:21:02.646Z,23.62
2019-04-16T14:23:27.069Z,23.88
2019-04-16T14:25:51.606Z,23.79
2019-04-16T14:28:18.047Z,23.52
2019-04-16T14:30:43.987Z,23.72
2019-04-16T14:33:08.643Z,23.51
2019-04-16T14:35:34.231Z,23.60
2019-04-16T14:37:58.726Z,23.16
2019-04-16T14:40:24.603Z,23.97
2019-04-16T14:42:49.314Z,24.15
2019-04-16T14:45:15.592Z,23.45
2019-04-16T14:47:40.119Z,23.70
2019-04-16T14:50:06.500Z,23.93
2019-04-16T14:52:30.968Z,23.82
2019-04-16T14:55:00.207Z,23.62
2019-04-16T14:57:24.646Z,23.59
2019-04-16T14:59:53.494Z,23.66
2019-04-16T15:02:35.686Z,23.17
2019-04-16T15:05:04.749Z,22.80
2019-04-16T15:07:39.588Z,23.48
2019-04-16T15:10:10.362Z,23.67
2019-04-16T15:12:45.652Z,23.48
2019-04-16T15:15:13.188Z,23.96
2019-04-16T15:17:42.381Z,23.79
2019-04-16T15:20:21.195Z,22.99
2019-04-16T15:22:50.303Z,23.35
2019-04-16T15:25:16.508Z,23.30
2019-04-16T15:27:49.243Z,23.09
2019-04-16T15:30:29.886Z,23.32
2019-04-16T15:32:58.958Z,23.41
2019-04-16T15:35:34.036Z,23.65
2019-04-16T15:38:03.105Z,23.43
2019-04-16T15:40:39.043Z,23.07
2019-04-16T15:43:12.262Z,23.24
2019-04-16T15:45:54.826Z,23.28
2019-04-16T15:48:20.915Z,23.46
2019-04-16T15:51:07.726Z,23.07
2019-04-16T15:53:50.509Z,22.99
2019-04-16T15:56:17.320Z,22.26
2019-04-16T15:58:43.534Z,22.72
2019-04-16T16:01:18.807Z,22.48
2019-04-16T16:04:01.249Z,22.84
2019-04-16T16:06:27.452Z,23.12
2019-04-16T16:08:56.465Z,22.63
2019-04-16T16:11:22.507Z,21.56
2019-04-16T16:13:47.030Z,22.11
2019-04-16T16:16:17.574Z,22.18
2019-04-16T16:18:39.694Z,21.85
2019-04-16T16:21:04.209Z,21.88
2019-04-16T16:23:32.765Z,21.16
2019-04-16T16:25:54.886Z,21.63
2019-04-16T16:28:19.405Z,21.88
2019-04-16T16:30:43.838Z,21.95
2019-04-16T16:33:08.328Z,21.74
2019-04-16T16:35:34.796Z,21.70
2019-04-16T16:37:59.241Z,21.77
2019-04-16T16:40:23.896Z,21.18
2019-04-16T16:42:48.325Z,21.09
2019-04-16T16:45:12.906Z,21.01
2019-04-16T16:47:39.935Z,21.33
2019-04-16T16:50:09.807Z,21.07
2019-04-16T16:52:33.208Z,20.49
2019-04-16T16:54:59.298Z,20.54
2019-04-16T16:57:28.348Z,20.69
2019-04-16T16:59:54.628Z,20.57
2019-04-16T17:02:20.742Z,20.94
2019-04-16T17:04:46.840Z,20.25
2019-04-16T17:07:11.263Z,20.15
2019-04-16T17:09:36.699Z,20.40
2019-04-16T17:12:01.243Z,20.02
2019-04-16T17:14:25.739Z,20.48
2019-04-16T17:16:50.170Z,19.88
2019-04-16T17:19:14.594Z,20.49
2019-04-16T17:21:39.039Z,20.58
2019-04-16T17:24:03.529Z,20.34
2019-04-16T17:26:27.963Z,20.30
2019-04-16T17:28:52.530Z,20.59
2019-04-16T17:31:17.031Z,20.31
2019-04-16T17:33:41.598Z,20.33
2019-04-16T17:36:06.550Z,20.23
2019-04-16T17:38:33.900Z,20.37
2019-04-16T17:41:01.579Z,20.16
2019-04-16T17:43:27.767Z,20.17
2019-04-16T17:46:10.156Z,19.84
2019-04-16T17:48:39.564Z,19.98
2019-04-16T17:51:23.671Z,19.93
2019-04-16T17:53:49.742Z,19.94
2019-04-16T17:56:27.659Z,19.76
2019-04-16T17:58:53.720Z,19.63
2019-04-16T18:01:28.918Z,19.63
2019-04-16T18:03:55.040Z,19.68
2019-04-16T18:06:24.199Z,19.56
2019-04-16T18:08:53.206Z,19.27
2019-04-16T18:11:21.805Z,19.23
2019-04-16T18:14:06.626Z,19.01
2019-04-16T18:16:33.604Z,19.16
2019-04-16T18:18:59.762Z,19.01
2019-04-16T18:21:32.079Z,19.03
2019-04-16T18:23:58.449Z,18.98
2019-04-16T18:26:40.921Z,18.74
2019-04-16T18:29:09.928Z,18.70
2019-04-16T18:31:36.019Z,18.68
2019-04-16T18:34:05.105Z,18.67
2019-04-16T18:36:32.620Z,18.60
2019-04-16T18:39:05.537Z,18.28
2019-04-16T18:41:34.963Z,18.48
2019-04-16T18:44:01.149Z,18.15
2019-04-16T18:46:30.907Z,18.04
2019-04-16T18:49:06.347Z,18.06
2019-04-16T18:51:33.537Z,18.11
2019-04-16T18:53:57.057Z,17.97
2019-04-16T18:56:21.618Z,18.02
2019-04-16T18:58:46.137Z,17.94
2019-04-16T19:01:12.271Z,17.75
2019-04-16T19:03:36.711Z,17.83
2019-04-16T19:06:01.679Z,17.76
2019-04-16T19:08:40.502Z,17.59
2019-04-16T19:10:52.797Z,17.39
2019-04-16T19:13:19.868Z,17.37
2019-04-16T19:15:43.559Z,17.30
2019-04-16T19:18:19.321Z,17.42
2019-04-16T19:20:34.370Z,17.25
2019-04-16T19:22:58.849Z,17.38
2019-04-16T19:25:23.428Z,17.29
2019-04-16T19:27:49.058Z,17.27
2019-04-16T19:30:13.795Z,16.75
2019-04-16T19:32:38.270Z,17.05
2019-04-16T19:35:09.981Z,16.78
2019-04-16T19:37:29.800Z,16.89
2019-04-16T19:39:55.130Z,16.64
2019-04-16T19:42:19.552Z,16.48
2019-04-16T19:44:44.051Z,16.62
2019-04-16T19:47:08.474Z,16.54
2019-04-16T19:49:33.002Z,16.45
2019-04-16T19:51:57.414Z,16.31
2019-04-16T19:54:21.946Z,16.33
2019-04-16T19:56:51.041Z,16.43
2019-04-16T19:59:12.546Z,16.28
2019-04-16T20:01:36.958Z,16.34
2019-04-16T20:04:01.677Z,16.33
2019-04-16T20:06:26.403Z,16.34
2019-04-16T20:08:50.822Z,16.12
2019-04-16T20:11:20.496Z,16.01
2019-04-16T20:13:41.485Z,16.04
2019-04-16T20:16:05.914Z,16.00
2019-04-16T20:18:30.356Z,16.00
2019-04-16T20:20:54.908Z,15.76
2019-04-16T20:23:19.257Z,15.66
2019-04-16T20:25:43.764Z,15.92
2019-04-16T20:28:09.574Z,15.81
2019-04-16T20:30:34.330Z,15.88
2019-04-16T20:32:58.735Z,15.69
2019-04-16T20:35:23.315Z,15.63
2019-04-16T20:37:50.391Z,15.72
2019-04-16T20:40:14.588Z,15.81
2019-04-16T20:42:40.124Z,15.67
2019-04-16T20:45:06.586Z,15.26
2019-04-16T20:47:31.039Z,15.50
2019-04-16T20:49:55.455Z,15.60
2019-04-16T20:52:19.937Z,15.64
2019-04-16T20:54:46.008Z,15.52
2019-04-16T20:57:10.442Z,15.26
2019-04-16T20:59:36.074Z,15.33
2019-04-16T21:02:01.002Z,15.26
2019-04-16T21:04:25.414Z,15.38
2019-04-16T21:06:49.838Z,15.34
2019-04-16T21:09:14.264Z,15.07
2019-04-16T21:11:40.995Z,15.12
2019-04-16T21:14:05.078Z,15.19
2019-04-16T21:16:33.442Z,15.07
2019-04-16T21:18:55.715Z,15.06
2019-04-16T21:21:23.636Z,14.98
2019-04-16T21:23:46.262Z,15.06
2019-04-16T21:26:10.757Z,14.95
2019-04-16T21:28:36.808Z,14.96
2019-04-16T21:31:02.855Z,14.95
2019-04-16T21:33:31.875Z,14.78
2019-04-16T21:36:03.106Z,14.77
2019-04-16T21:38:32.150Z,14.79
2019-04-16T21:40:57.408Z,14.65
2019-04-16T21:43:22.450Z,14.73
2019-04-16T21:45:48.273Z,14.58
2019-04-16T21:48:12.983Z,13.91
2019-04-16T21:50:37.578Z,14.46
2019-04-16T21:53:02.030Z,14.48
2019-04-16T21:55:26.444Z,14.53
2019-04-16T21:57:50.891Z,14.75
2019-04-16T22:00:35.995Z,14.49
2019-04-16T22:03:00.611Z,14.38
2019-04-16T22:05:25.156Z,14.37
2019-04-16T22:07:49.609Z,14.19
2019-04-16T22:10:14.089Z,14.13
2019-04-16T22:12:38.526Z,14.09
2019-04-16T22:15:03.004Z,14.14
2019-04-16T22:17:27.509Z,14.00
2019-04-16T22:19:54.655Z,14.08
2019-04-16T22:22:18.182Z,13.84
2019-04-16T22:24:42.687Z,14.15
2019-04-16T22:27:08.222Z,13.88
2019-04-16T22:29:33.075Z,13.95
2019-04-16T22:31:58.274Z,13.92
2019-04-16T22:34:26.187Z,14.04
2019-04-16T22:36:50.607Z,13.91
2019-04-16T22:39:26.080Z,14.04
2019-04-16T22:42:10.315Z,13.91
2019-04-16T22:44:51.707Z,13.74
2019-04-16T22:47:17.765Z,13.60
2019-04-16T22:49:42.216Z,13.60
2019-04-16T22:52:06.696Z,13.72
2019-04-16T22:54:31.131Z,13.73
2019-04-16T22:57:01.417Z,13.60
2019-04-16T22:59:26.466Z,13.79
2019-04-16T23:01:53.127Z,13.70
2019-04-16T23:04:17.120Z,13.72
2019-04-16T23:06:41.550Z,13.54
2019-04-16T23:09:08.043Z,13.44
2019-04-16T23:11:32.482Z,13.20
2019-04-16T23:13:57.098Z,13.31
2019-04-16T23:16:21.596Z,13.40
2019-04-16T23:18:48.813Z,13.25
2019-04-16T23:21:12.150Z,13.20
2019-04-16T23:23:36.647Z,13.23
2019-04-16T23:26:01.532Z,13.23
2019-04-16T23:28:25.982Z,12.85
2019-04-16T23:30:51.215Z,13.07
2019-04-16T23:33:16.155Z,13.08
2019-04-16T23:35:44.452Z,13.05
2019-04-16T23:38:06.708Z,12.83
2019-04-16T23:40:31.165Z,12.93
2019-04-16T23:42:59.898Z,12.91
2019-04-16T23:45:31.446Z,12.85
2019-04-16T23:48:03.154Z,12.58
2019-04-16T23:50:44.887Z,12.90
2019-04-16T23:53:17.846Z,12.88
2019-04-16T23:55:59.978Z,12.85
2019-04-16T23:58:29.462Z,12.65
